Ash, NC

6:55 AM EDT on September 20, 2014 (GMT -0400)
Wyndfall At Sandpiper Bay | Change Station
CLOSE
Current Station
Personal Weather Station
Location: Sunset Beach, NC
Elevation: 20 ft
Nearby Weather Stations

Elev 20 ft 33.92 °N, 78.50 °W | Updated 5 seconds ago

Clear
Clear
65.8 °F
Feels Like 65.8 °F
N
2.0
Wind Variable Wind from ENE
Gusts 5.8 mph

Today
High -- | Low -- °F
--% Chance of Precip.
Yesterday
High -- | Low -- °F
Precip. -- in
7:00 AM 7:13 PM
Waning Crescent, 13% visible
Pressure 30.12 in
Visibility 10.0 miles
Clouds Clear
Dew Point 63 °F
Humidity 90%
Rainfall 0.00 in
Snow Depth Not available.
UV 0 out of 12
Pollen 7.60 out of 12
Air Quality Not available.
Flu Activity Not available.
METAR KCPC 201035Z AUTO 02004KT 10SM CLR 18/15 A3012 RMK AO2 T01810152

More Conditions Fewer Conditions

Pressure 30.12 in
Visibility 10.0 miles
Clouds Clear
Dew Point 63 °F
Humidity 90%
Rainfall 0.00 in
Snow Depth Not available.
UV 0 out of 12
Pollen 7.60 out of 12
Air Quality Not available.
Flu Activity Not available.
METAR KCPC 201035Z AUTO 02004KT 10SM CLR 18/15 A3012 RMK AO2 T01810152

More Conditions Fewer Conditions

10-Day Weather Forecast

Almanac

Astronomy

Sep. 20, 2014 Rise Set
Actual Time 7:00 AM EDT 7:13 PM EDT
Civil Twilight 6:35 AM EDT 7:38 PM EDT
Nautical Twilight 6:06 AM EDT 8:07 PM EDT
Astronomical Twilight 5:36 AM EDT 8:37 PM EDT
Moon 3:45 AM EDT 5:09 PM EDT
Length of Visible Light 13h 02m
Length of Day
12h 12m
Tomorrow will be 2m 7s shorter.
Waning Crescent, 13% of the Moon is Illuminated
Today
Waning Crescent
Sep 24
New
Oct 1
First Quarter
Oct 8
Full
Oct 15
Last Quarter

Today's Extremes

State Highs State Lows

Community

WunderPhotos

Upload Photos

1,754,827 photos uploaded!

Nearby

Snow Depth

Station Depth Elevation
No new snow has been reported.

Earthquake Activity

City Distance Mag. Time & Date
No recent earthquake activity has been reported nearby.
Minimum magnitude displayed is 2.5.

Coastal Water Temperatures

Place Temperature
Johnny Mercer Pier, Wrightsville Beach, NC 80.1 °F
Springmaid Pier, SC 80.1 °F

Nearby Weather Stations